Latest Weather Observations for Mount Hotham Airport

IDV60801

Issued at 11:35 am EST Monday 15 September 2014 (issued every 30 minutes, with the page automatically refreshed every 10 minutes)

About weather observations | Map of weather stations | Latest weather observations for VIC | Other Formats
Station Details ID: 083055 Name: MOUNT HOTHAM AIRPORT Lat: -37.05 Lon: 147.33 Height: 1295.4 m
Data from the previous 72 hours. | See also: Recent months at Mount Hotham Airport
Date/Time
EST
Temp
°C
App
Temp
°C
Dew
Point
Rel
Hum
%
Delta-T
°C
Wind Press
QNH
hPa
Press
MSL
hPa
Rain
since 9 am
mm
Dir
 
Spd
km/h
Gust
km/h
Spd
kts
Gust
kts
15/11:30am 10.2 5.2 1.6 55 3.9 NNW 17 22 9 12 1016.8 - 0.0
15/11:00am 10.4 5.9 2.0 56 3.8 NW 15 22 8 12 1017.2 - 0.0
15/10:30am 10.1 6.0 2.2 58 3.6 NW 13 20 7 11 1017.4 - 0.0
15/09:30am 9.8 5.8 2.6 61 3.3 NNW 13 19 7 10 1017.7 - 0.0
15/09:00am 8.9 5.4 1.1 58 3.4 NW 9 13 5 7 1018.0 1020.3 0.0
15/08:30am 7.5 4.4 1.6 66 2.6 NNW 7 11 4 6 1018.0 - 0.0
15/08:00am 8.0 4.7 2.5 68 2.5 NW 9 13 5 7 1017.9 - 0.0
15/07:30am 5.9 3.1 1.8 75 1.8 NNW 6 7 3 4 1017.6 - 0.0
15/07:00am 3.6 0.5 0.3 79 1.4 NNW 6 7 3 4 1017.3 - 0.0
15/06:30am 0.9 -2.5 -1.8 82 1.1 NW 6 9 3 5 1017.2 - 0.0
15/06:00am 1.4 -1.9 -1.5 81 1.1 NW 6 7 3 4 1017.0 1019.2 0.0
15/05:30am 0.3 -2.4 -2.4 82 1.0 NW 2 7 1 4 1016.9 - 0.0
15/05:00am -0.2 -3.4 -3.1 81 1.0 NNW 4 9 2 5 1016.9 - 0.0
15/04:30am -0.7 -4.2 -3.1 84 0.8 NW 6 7 3 4 1017.0 - 0.0
15/04:15am 1.4 -1.5 -1.3 82 1.0 NW 4 6 2 3 1017.0 - 0.0
15/04:00am 1.7 -1.2 -1.0 82 1.1 NW 4 6 2 3 1017.1 - 0.0
15/03:46am 1.3 -1.9 -0.6 87 0.7 WNW 6 7 3 4 1017.2 - 0.0
15/03:30am 0.9 -2.3 -0.5 90 0.5 WNW 6 7 3 4 1017.4 - 0.0
15/03:00am 1.3 -1.7 0.9 97 0.2 NW 6 6 3 3 1017.6 1019.8 0.0
15/02:30am 1.3 -1.6 1.2 99 0.0 WNW 6 7 3 4 1018.0 - 0.0
15/02:04am 1.5 -1.4 1.4 99 0.0 WNW 6 6 3 3 1018.2 - 0.0
15/02:00am 1.4 -1.1 1.3 99 0.0 WNW 4 6 2 3 1018.4 - 0.0
15/01:46am 1.9 -0.6 1.8 99 0.0 WNW 4 6 2 3 1018.5 - 0.0
15/01:43am 1.7 -0.8 1.6 99 0.0 WNW 4 6 2 3 1018.6 - 0.0
15/01:32am 0.8 -2.2 0.7 99 0.0 WNW 6 6 3 3 1018.6 - 0.0
15/01:30am 0.8 -2.2 0.7 99 0.0 WNW 6 6 3 3 1018.7 - 0.0
15/01:00am 1.4 -1.5 1.3 99 0.0 WNW 6 7 3 4 1019.0 - 0.0
15/12:33am 1.3 -1.6 1.2 99 0.0 WNW 6 6 3 3 1019.1 - 0.0
15/12:30am 1.2 -1.8 1.1 99 0.0 WNW 6 7 3 4 1019.1 - 0.0
15/12:00am 1.7 -0.4 1.6 99 0.0 NNW 2 4 1 2 1019.3 1021.6 0.0
 
Date/Time
EST
Temp
°C
App
Temp
°C
Dew
Point
Rel
Hum
%
Delta-T
°C
Wind Press
QNH
hPa
Press
MSL
hPa
Rain
since 9 am
mm
Dir
 
Spd
km/h
Gust
km/h
Spd
kts
Gust
kts
14/11:30pm 2.0 0.3 1.9 99 0.0 CALM 0 2 0 1 1019.4 - 0.0
14/11:00pm 1.8 -0.3 1.7 99 0.0 W 2 6 1 3 1019.5 - 0.0
14/10:48pm 1.7 -0.4 1.6 99 0.0 W 2 4 1 2 1019.5 - 0.0
14/10:30pm 2.4 0.0 2.3 99 0.0 WNW 4 6 2 3 1019.6 - 0.0
14/10:26pm 2.4 0.0 2.3 99 0.0 WNW 4 4 2 2 1019.7 - 0.0
14/10:05pm 1.7 -0.8 1.6 99 0.0 NW 4 4 2 2 1019.7 - 0.0
14/10:02pm 2.2 0.2 2.1 99 0.0 N 2 4 1 2 1019.7 - 0.0
14/10:00pm 2.2 0.2 2.1 99 0.0 E 2 4 1 2 1019.8 - 0.0
14/09:38pm 2.9 1.4 2.8 99 0.0 CALM 0 2 0 1 1019.9 - 0.0
14/09:30pm 3.8 2.0 3.7 99 0.0 ESE 2 4 1 2 1019.9 - 0.0
14/09:00pm 3.9 2.2 3.8 99 0.0 S 2 6 1 3 1020.2 1022.5 0.0
14/08:37pm 3.2 0.5 2.6 96 0.3 SW 6 7 3 4 1020.1 - 0.0
14/08:30pm 3.5 1.2 2.9 96 0.3 SSW 4 7 2 4 1019.9 - 0.0
14/08:27pm 3.9 2.1 3.3 96 0.3 S 2 7 1 4 1019.9 - 0.0
14/08:00pm 3.4 1.4 2.1 91 0.6 W 2 4 1 2 1019.7 - 0.0
14/07:30pm 3.3 0.8 1.3 87 0.8 WSW 4 7 2 4 1019.6 - 0.0
14/07:00pm 4.7 2.3 2.4 85 1.0 S 4 7 2 4 1019.7 - 0.0
14/06:30pm 5.1 2.3 1.9 80 1.4 SSW 6 7 3 4 1019.3 - 0.0
14/06:00pm 7.8 5.6 3.1 72 2.2 ENE 4 4 2 2 1019.0 1021.3 0.0
14/05:30pm 8.8 6.0 3.2 68 2.6 ESE 7 9 4 5 1018.9 - 0.0
14/05:00pm 9.6 6.5 3.8 67 2.7 E 9 11 5 6 1018.8 - 0.0
14/04:30pm 9.8 6.0 3.8 66 2.8 ESE 13 17 7 9 1018.7 - 0.0
14/04:00pm 10.1 6.8 2.5 59 3.5 W 9 17 5 9 1018.7 - 0.0
14/03:30pm 10.6 7.7 1.4 53 4.2 N 6 11 3 6 1018.7 - 0.0
14/03:00pm 10.9 7.7 0.6 49 4.6 SW 7 15 4 8 1018.7 1021.0 0.0
14/02:30pm 10.9 6.5 0.3 48 4.7 W 13 19 7 10 1018.8 - 0.0
14/02:00pm 11.1 7.1 0.5 48 4.7 WSW 11 19 6 10 1018.9 - 0.0
14/01:30pm 12.6 8.4 -1.0 39 5.9 WSW 11 19 6 10 1018.9 - 0.0
14/01:00pm 11.9 7.3 -0.9 41 5.6 W 13 22 7 12 1019.0 - 0.0
14/12:30pm 12.2 8.6 0.9 46 5.1 WSW 9 17 5 9 1019.3 - 0.0
14/12:00pm 11.9 7.6 0.7 46 5.0 SW 13 24 7 13 1019.6 1021.9 0.0
14/11:30am 10.6 5.4 -0.2 47 4.7 SSW 17 24 9 13 1019.9 - 0.0
14/11:00am 10.7 5.6 0.7 50 4.5 SSW 17 22 9 12 1020.2 - 0.0
14/10:30am 9.8 5.0 -0.1 50 4.3 SSW 15 22 8 12 1020.6 - 0.0
14/10:00am 9.2 4.4 -0.1 52 4.0 SSW 15 20 8 11 1020.7 - 0.0
14/09:30am 8.9 4.4 -0.4 52 4.0 WSW 13 19 7 10 1020.8 - 0.0
14/09:00am 8.3 4.6 -0.2 55 3.6 W 9 20 5 11 1021.0 1023.3 0.0
14/08:30am 7.3 3.3 0.3 61 3.0 W 11 17 6 9 1021.0 - 0.0
14/08:00am 6.2 3.0 0.5 67 2.4 W 7 13 4 7 1021.1 - 0.0
14/07:30am 4.5 1.4 1.2 79 1.4 WNW 7 11 4 6 1021.0 - 0.0
14/07:00am 1.7 -1.8 -1.2 81 1.1 WNW 7 9 4 5 1020.7 - 0.0
14/06:43am 0.7 -2.8 -1.4 86 0.8 WNW 7 9 4 5 1020.7 - 0.0
14/06:30am 0.4 -3.1 -1.0 90 0.6 NW 7 7 4 4 1020.6 - 0.0
14/06:28am 0.3 -3.2 -1.1 90 0.6 NW 7 7 4 4 1020.6 - 0.0
14/06:00am 0.8 -2.7 -1.1 87 0.7 NNW 7 9 4 5 1020.6 1023.0 0.0
14/05:30am -1.3 -4.3 -2.0 95 0.2 NW 4 4 2 2 1020.5 - 0.0
14/05:00am 0.1 -1.9 -0.3 97 0.2 CALM 0 0 0 0 1020.6 - 0.0
14/04:30am 0.2 -1.9 -0.5 95 0.3 CALM 0 0 0 0 1020.6 - 0.0
14/04:00am 0.6 -2.2 -0.4 93 0.4 NW 4 6 2 3 1020.6 - 0.0
14/03:30am 0.3 -2.2 -1.1 90 0.6 SSW 2 4 1 2 1020.7 - 0.0
14/03:00am 0.5 -2.4 -0.8 91 0.5 WSW 4 7 2 4 1020.8 1023.2 0.0
14/02:30am 1.6 -0.8 -0.2 88 0.7 E 2 6 1 3 1021.1 - 0.0
14/02:00am 2.4 -0.2 1.1 91 0.5 W 4 9 2 5 1021.3 - 0.0
14/01:30am 2.1 -1.3 2.0 99 0.0 NNW 9 11 5 6 1021.3 - 0.0
14/01:00am 1.1 -1.2 0.5 96 0.2 WNW 2 6 1 3 1021.6 - 0.0
14/12:30am 2.6 -0.9 1.4 92 0.5 NNW 9 13 5 7 1021.8 - 0.0
14/12:00am 3.3 -0.4 2.1 92 0.5 NNW 11 13 6 7 1021.6 1024.0 0.0
 
Date/Time
EST
Temp
°C
App
Temp
°C
Dew
Point
Rel
Hum
%
Delta-T
°C
Wind Press
QNH
hPa
Press
MSL
hPa
Rain
since 9 am
mm
Dir
 
Spd
km/h
Gust
km/h
Spd
kts
Gust
kts
13/11:30pm 3.2 -0.7 1.4 88 0.8 WNW 11 17 6 9 1022.1 - 0.0
13/11:00pm 3.1 -1.1 1.9 92 0.5 NW 13 15 7 8 1022.2 - 0.0
13/10:30pm 3.8 0.5 2.6 92 0.5 NW 9 15 5 8 1022.3 - 0.0
13/10:00pm 1.8 -2.0 1.7 99 0.0 WNW 11 13 6 7 1022.5 - 0.0
13/09:30pm 1.2 -2.0 0.5 95 0.3 NNW 7 7 4 4 1022.7 - 0.0
13/09:00pm 2.4 -0.5 1.2 92 0.5 NW 6 7 3 4 1022.8 1025.2 0.0
13/08:30pm 3.6 0.8 2.0 89 0.7 NNW 6 7 3 4 1022.9 - 0.0
13/08:00pm 4.6 1.8 3.3 91 0.6 NW 7 9 4 5 1022.9 - 0.0
13/07:30pm 2.9 -0.6 1.1 88 0.8 WNW 9 11 5 6 1022.9 - 0.0
13/07:00pm 5.0 2.3 2.4 83 1.1 WNW 6 6 3 3 1022.7 - 0.0
13/06:30pm 6.7 2.8 3.3 79 1.6 WNW 13 17 7 9 1022.5 - 0.0
13/06:00pm 7.3 3.6 2.6 72 2.1 WNW 11 15 6 8 1022.4 1024.8 0.0
13/05:30pm 10.4 7.5 2.5 58 3.7 WNW 7 11 4 6 1022.3 - 0.0
13/05:00pm 11.8 8.4 2.0 51 4.5 WSW 9 15 5 8 1022.1 - 0.0
13/04:30pm 12.3 8.8 3.3 54 4.3 WNW 11 17 6 9 1022.1 - 0.0
13/04:00pm 13.2 9.3 0.9 43 5.6 W 11 17 6 9 1022.0 - 0.0
13/03:30pm 13.8 10.5 2.7 47 5.3 S 9 15 5 8 1022.0 - 0.0
13/03:00pm 12.6 10.1 1.6 47 5.1 N 4 7 2 4 1022.1 1024.5 0.0
13/02:30pm 12.8 9.9 4.8 58 4.0 SSE 9 11 5 6 1022.2 - 0.0
13/02:00pm 13.1 10.1 4.0 54 4.4 NE 9 17 5 9 1022.3 - 0.0
13/01:30pm 13.7 10.8 4.8 55 4.4 ENE 9 19 5 10 1022.5 - 0.0
13/01:00pm 13.2 10.0 5.1 58 4.0 E 11 19 6 10 1022.9 - 0.0
13/12:30pm 12.3 9.2 3.8 56 4.1 NE 9 17 5 9 1023.2 - 0.0
13/12:00pm 11.9 8.3 2.9 54 4.2 ENE 11 20 6 11 1023.8 1026.2 0.0
13/11:30am 11.1 7.6 3.4 59 3.7 ESE 11 17 6 9 1024.2 - 0.0
13/11:00am 10.5 6.9 2.8 59 3.6 ESE 11 13 6 7 1024.4 - 0.0
13/10:30am 9.8 6.4 3.8 66 2.8 ESE 11 15 6 8 1024.5 - 0.0
13/10:00am 9.5 6.0 3.7 67 2.7 SE 11 13 6 7 1024.5 - 0.0
13/09:30am 9.9 7.4 4.7 70 2.5 ESE 7 9 4 5 1024.7 - 0.0
13/09:00am 9.3 7.5 3.7 68 2.6 N 2 6 1 3 1024.8 1027.3 -
13/08:30am 7.1 5.1 4.2 82 1.4 NNW 4 6 2 3 1024.8 - -
13/08:00am 4.8 1.9 4.7 99 0.0 NNW 9 11 5 6 1024.7 - -
13/07:30am 3.0 0.2 2.9 99 0.0 NNW 7 7 4 4 1024.5 - -
13/07:00am -0.1 -3.4 -0.2 99 0.0 NNW 7 9 4 5 1024.4 - -
13/06:30am -0.8 -4.6 -0.9 99 0.0 N 9 11 5 6 1023.9 - -
13/06:28am -1.0 -4.8 -1.1 99 0.0 N 9 11 5 6 1023.9 - -
13/06:00am -2.2 -5.8 -2.3 99 -0.1 NNW 7 9 4 5 1023.9 1026.4 -
13/05:30am -2.0 - -2.1 99 -0.1 - - - - - 1023.8 - -
13/05:00am -0.1 -3.3 -0.2 99 0.0 NW 6 9 3 5 1023.8 - 0.0
13/04:30am 0.2 -2.9 0.1 99 0.0 N 6 7 3 4 1023.6 - 0.0
13/04:00am 0.2 -2.5 0.1 99 0.0 NNW 4 6 2 3 1023.6 - 0.0
13/03:30am -1.4 -4.0 -1.5 99 0.0 W 2 4 1 2 1023.8 - 0.0
13/03:00am -1.5 -4.1 -1.6 99 0.0 WSW 2 4 1 2 1023.9 1026.4 0.0
13/02:30am -2.0 -4.7 -2.1 99 -0.1 WNW 2 4 1 2 1023.9 - 0.0
13/02:00am -1.4 -4.0 -1.5 99 0.0 W 2 2 1 1 1024.0 - 0.0
13/01:30am -2.6 -5.7 -2.7 99 -0.1 W 4 6 2 3 1024.2 - 0.0
13/01:00am -0.5 -2.9 -0.6 99 0.0 SW 2 4 1 2 1024.6 - 0.0
13/12:30am -1.9 -5.3 -2.0 99 -0.1 SSW 6 7 3 4 1024.9 - 0.0
13/12:00am -0.9 -3.8 -1.0 99 0.0 NW 4 4 2 2 1024.8 1027.3 0.0
 
Date/Time
EST
Temp
°C
App
Temp
°C
Dew
Point
Rel
Hum
%
Delta-T
°C
Wind Press
QNH
hPa
Press
MSL
hPa
Rain
since 9 am
mm
Dir
 
Spd
km/h
Gust
km/h
Spd
kts
Gust
kts
12/11:39pm -0.2 -3.4 -0.3 99 0.0 NW 6 7 3 4 1024.8 - 0.0
12/11:33pm -0.3 -2.7 -0.4 99 0.0 NW 2 4 1 2 1024.9 - 0.0
12/11:30pm 0.3 -2.0 0.2 99 0.0 NW 2 4 1 2 1024.9 - 0.0
12/11:21pm 0.0 -2.4 -0.1 99 0.0 W 2 4 1 2 1025.0 - 0.0
12/11:14pm 0.1 -2.3 0.0 99 0.0 SW 2 6 1 3 1025.2 - 0.0
12/11:00pm 0.1 -2.3 0.0 99 0.0 SW 2 6 1 3 1025.4 - 0.0
12/10:57pm 0.0 -2.4 -0.1 99 0.0 SW 2 4 1 2 1025.3 - 0.0
12/10:30pm -0.2 -3.0 -0.3 99 0.0 SW 4 7 2 4 1025.4 - 0.0
12/10:00pm 0.1 -2.3 0.0 99 0.0 SW 2 6 1 3 1025.5 - 0.0
12/09:58pm 0.2 -2.1 0.1 99 0.0 SW 2 6 1 3 1025.4 - 0.0
12/09:40pm -0.3 -2.7 -0.6 98 0.1 SSW 2 4 1 2 1025.4 - 0.0
12/09:30pm -0.3 -2.4 -0.6 98 0.1 CALM 0 2 0 1 1025.4 - 0.0
12/09:00pm -0.2 -2.3 -0.8 96 0.2 CALM 0 2 0 1 1025.2 1027.6 0.0
12/08:30pm 0.2 -1.9 -0.5 95 0.3 CALM 0 4 0 2 1025.0 - 0.0
12/08:00pm 0.4 -2.9 -0.9 91 0.5 NNW 6 7 3 4 1025.0 - 0.0
12/07:30pm 2.6 0.4 1.0 89 0.7 SW 2 4 1 2 1025.0 - 0.0
12/07:00pm 3.0 0.1 1.5 90 0.6 SE 6 7 3 4 1025.0 - 0.0
12/06:30pm 2.7 -0.5 0.8 87 0.8 SSE 7 9 4 5 1024.7 - 0.0
12/06:00pm 4.1 1.0 1.3 82 1.2 SE 7 11 4 6 1024.4 1026.8 0.0
12/05:30pm 5.1 1.3 1.8 79 1.4 SE 11 15 6 8 1024.2 - 0.0
12/05:00pm 5.9 1.7 1.6 74 1.9 SE 13 20 7 11 1024.0 - 0.0
12/04:30pm 6.9 2.8 2.0 71 2.2 ESE 13 17 7 9 1023.9 - 0.0
12/04:00pm 7.5 3.4 2.0 68 2.5 ESE 13 17 7 9 1023.8 - 0.0
12/03:30pm 8.3 4.4 1.2 61 3.1 ESE 11 17 6 9 1023.6 - 0.0
12/03:00pm 9.1 4.8 0.8 56 3.6 ESE 13 20 7 11 1023.3 1025.8 0.0
12/02:30pm 9.9 5.8 0.0 50 4.3 ENE 11 17 6 9 1023.1 - 0.0
12/02:00pm 10.2 7.1 0.3 50 4.4 SSW 6 9 3 5 1023.1 - 0.0
12/01:30pm 9.4 5.7 0.1 52 4.0 E 9 13 5 7 1023.1 - 0.0
12/01:00pm 8.4 4.6 -1.1 51 4.0 ENE 9 15 5 8 1023.3 - 0.0
12/12:30pm 8.3 5.0 0.1 56 3.5 S 7 13 4 7 1023.7 - 0.0
12/12:00pm 7.9 4.5 -0.3 56 3.5 E 7 15 4 8 1023.8 1026.2 0.0

Other Formats:

Comma delimited format used in spreadsheet applications
http://www.bom.gov.au/fwo/IDV60801/IDV60801.94905.axf

JavaScript Object Notation format (JSON) in row-major order
http://www.bom.gov.au/fwo/IDV60801/IDV60801.94905.json